sensor_id;sensor_type;location;lat;lon;timestamp;P1;durP1;ratioP1;P2;durP2;ratioP2
46953;SDS011;32707;43.886;12.874;2022-07-29T00:00:20;4.15;;;3.22;;
46953;SDS011;32707;43.886;12.874;2022-07-29T00:02:45;2.95;;;2.70;;
46953;SDS011;32707;43.886;12.874;2022-07-29T00:05:11;6.85;;;2.88;;
46953;SDS011;32707;43.886;12.874;2022-07-29T00:07:38;5.82;;;3.15;;
46953;SDS011;32707;43.886;12.874;2022-07-29T00:10:05;6.25;;;3.15;;
46953;SDS011;32707;43.886;12.874;2022-07-29T00:12:30;4.00;;;3.22;;
46953;SDS011;32707;43.886;12.874;2022-07-29T00:14:56;3.70;;;2.63;;
46953;SDS011;32707;43.886;12.874;2022-07-29T00:17:25;10.40;;;3.05;;
46953;SDS011;32707;43.886;12.874;2022-07-29T00:19:50;4.20;;;2.78;;
46953;SDS011;32707;43.886;12.874;2022-07-29T00:22:16;5.90;;;3.22;;
46953;SDS011;32707;43.886;12.874;2022-07-29T00:24:42;4.05;;;2.88;;
46953;SDS011;32707;43.886;12.874;2022-07-29T00:27:07;6.15;;;3.70;;
46953;SDS011;32707;43.886;12.874;2022-07-29T00:29:33;3.70;;;2.90;;
46953;SDS011;32707;43.886;12.874;2022-07-29T00:31:58;10.05;;;3.35;;
46953;SDS011;32707;43.886;12.874;2022-07-29T00:34:24;6.22;;;3.00;;
46953;SDS011;32707;43.886;12.874;2022-07-29T00:37:07;5.68;;;2.75;;
46953;SDS011;32707;43.886;12.874;2022-07-29T00:39:33;8.02;;;3.03;;
46953;SDS011;32707;43.886;12.874;2022-07-29T00:41:58;10.15;;;3.35;;
46953;SDS011;32707;43.886;12.874;2022-07-29T00:44:28;10.10;;;2.83;;
46953;SDS011;32707;43.886;12.874;2022-07-29T00:46:53;7.65;;;3.08;;
46953;SDS011;32707;43.886;12.874;2022-07-29T00:49:19;5.63;;;2.72;;
46953;SDS011;32707;43.886;12.874;2022-07-29T00:51:44;9.75;;;2.63;;
46953;SDS011;32707;43.886;12.874;2022-07-29T00:54:10;10.70;;;2.88;;
46953;SDS011;32707;43.886;12.874;2022-07-29T00:56:38;4.57;;;2.63;;
46953;SDS011;32707;43.886;12.874;2022-07-29T00:59:03;7.78;;;2.70;;
46953;SDS011;32707;43.886;12.874;2022-07-29T01:01:29;2.72;;;2.38;;
46953;SDS011;32707;43.886;12.874;2022-07-29T01:03:54;3.28;;;2.95;;
46953;SDS011;32707;43.886;12.874;2022-07-29T01:06:20;7.93;;;2.83;;
46953;SDS011;32707;43.886;12.874;2022-07-29T01:08:46;6.85;;;2.72;;
46953;SDS011;32707;43.886;12.874;2022-07-29T01:11:13;4.65;;;2.78;;
46953;SDS011;32707;43.886;12.874;2022-07-29T01:13:41;4.97;;;3.40;;
46953;SDS011;32707;43.886;12.874;2022-07-29T01:16:18;4.47;;;2.50;;
46953;SDS011;32707;43.886;12.874;2022-07-29T01:18:53;5.15;;;2.88;;
46953;SDS011;32707;43.886;12.874;2022-07-29T01:29:56;7.53;;;2.30;;
46953;SDS011;32707;43.886;12.874;2022-07-29T01:32:26;2.63;;;2.42;;
46953;SDS011;32707;43.886;12.874;2022-07-29T01:35:07;4.18;;;2.67;;
46953;SDS011;32707;43.886;12.874;2022-07-29T01:37:43;5.40;;;2.70;;
46953;SDS011;32707;43.886;12.874;2022-07-29T01:40:57;5.00;;;2.45;;
46953;SDS011;32707;43.886;12.874;2022-07-29T01:43:23;9.93;;;2.83;;
46953;SDS011;32707;43.886;12.874;2022-07-29T01:45:57;3.40;;;3.10;;
46953;SDS011;32707;43.886;12.874;2022-07-29T01:51:13;2.35;;;2.15;;
46953;SDS011;32707;43.886;12.874;2022-07-29T01:53:59;5.95;;;3.42;;
46953;SDS011;32707;43.886;12.874;2022-07-29T01:56:29;5.55;;;3.05;;
46953;SDS011;32707;43.886;12.874;2022-07-29T01:58:58;5.15;;;2.90;;
46953;SDS011;32707;43.886;12.874;2022-07-29T02:01:25;9.30;;;2.70;;
46953;SDS011;32707;43.886;12.874;2022-07-29T02:03:52;9.88;;;2.80;;
46953;SDS011;32707;43.886;12.874;2022-07-29T02:06:20;11.25;;;3.08;;
46953;SDS011;32707;43.886;12.874;2022-07-29T02:08:47;4.55;;;3.38;;
46953;SDS011;32707;43.886;12.874;2022-07-29T02:11:15;5.50;;;2.92;;
46953;SDS011;32707;43.886;12.874;2022-07-29T02:13:41;4.55;;;2.42;;
46953;SDS011;32707;43.886;12.874;2022-07-29T02:16:08;4.18;;;2.58;;
46953;SDS011;32707;43.886;12.874;2022-07-29T02:18:36;4.97;;;3.15;;
46953;SDS011;32707;43.886;12.874;2022-07-29T02:21:04;7.53;;;2.40;;
46953;SDS011;32707;43.886;12.874;2022-07-29T02:23:30;3.70;;;2.80;;
46953;SDS011;32707;43.886;12.874;2022-07-29T02:25:58;6.63;;;2.78;;
46953;SDS011;32707;43.886;12.874;2022-07-29T02:28:27;2.97;;;2.45;;
46953;SDS011;32707;43.886;12.874;2022-07-29T02:30:55;8.23;;;2.83;;
46953;SDS011;32707;43.886;12.874;2022-07-29T02:33:24;2.78;;;2.42;;
46953;SDS011;32707;43.886;12.874;2022-07-29T02:35:51;3.72;;;2.25;;
46953;SDS011;32707;43.886;12.874;2022-07-29T02:38:18;5.72;;;2.72;;
46953;SDS011;32707;43.886;12.874;2022-07-29T02:41:05;5.63;;;2.63;;
46953;SDS011;32707;43.886;12.874;2022-07-29T02:43:36;5.43;;;2.70;;
46953;SDS011;32707;43.886;12.874;2022-07-29T02:46:04;4.15;;;2.33;;
46953;SDS011;32707;43.886;12.874;2022-07-29T02:48:34;3.40;;;2.10;;
46953;SDS011;32707;43.886;12.874;2022-07-29T02:51:14;3.20;;;2.13;;
46953;SDS011;32707;43.886;12.874;2022-07-29T02:53:49;2.72;;;2.50;;
46953;SDS011;32707;43.886;12.874;2022-07-29T02:56:18;3.75;;;2.85;;
46953;SDS011;32707;43.886;12.874;2022-07-29T02:58:54;4.75;;;2.85;;
46953;SDS011;32707;43.886;12.874;2022-07-29T03:01:25;5.63;;;2.90;;
46953;SDS011;32707;43.886;12.874;2022-07-29T03:03:55;3.75;;;2.97;;
46953;SDS011;32707;43.886;12.874;2022-07-29T03:06:22;4.55;;;2.95;;
46953;SDS011;32707;43.886;12.874;2022-07-29T03:08:49;6.65;;;2.47;;
46953;SDS011;32707;43.886;12.874;2022-07-29T03:11:16;2.63;;;2.13;;
46953;SDS011;32707;43.886;12.874;2022-07-29T03:13:42;11.35;;;2.90;;
46953;SDS011;32707;43.886;12.874;2022-07-29T03:16:09;4.18;;;2.45;;
46953;SDS011;32707;43.886;12.874;2022-07-29T03:18:36;7.90;;;3.05;;
46953;SDS011;32707;43.886;12.874;2022-07-29T03:21:03;7.30;;;2.90;;
46953;SDS011;32707;43.886;12.874;2022-07-29T03:23:29;11.32;;;2.78;;
46953;SDS011;32707;43.886;12.874;2022-07-29T03:25:55;14.25;;;3.20;;
46953;SDS011;32707;43.886;12.874;2022-07-29T03:28:20;3.85;;;2.63;;
46953;SDS011;32707;43.886;12.874;2022-07-29T03:30:46;10.05;;;3.40;;
46953;SDS011;32707;43.886;12.874;2022-07-29T03:33:12;15.32;;;3.20;;
46953;SDS011;32707;43.886;12.874;2022-07-29T03:35:38;8.32;;;3.22;;
46953;SDS011;32707;43.886;12.874;2022-07-29T03:38:03;3.53;;;2.50;;
46953;SDS011;32707;43.886;12.874;2022-07-29T03:40:40;5.05;;;3.25;;
46953;SDS011;32707;43.886;12.874;2022-07-29T03:43:11;13.20;;;2.78;;
46953;SDS011;32707;43.886;12.874;2022-07-29T03:45:43;6.82;;;2.75;;
46953;SDS011;32707;43.886;12.874;2022-07-29T03:48:12;6.88;;;2.28;;
46953;SDS011;32707;43.886;12.874;2022-07-29T03:50:40;5.88;;;3.00;;
46953;SDS011;32707;43.886;12.874;2022-07-29T03:53:05;12.65;;;2.97;;
46953;SDS011;32707;43.886;12.874;2022-07-29T03:55:33;4.07;;;2.75;;
46953;SDS011;32707;43.886;12.874;2022-07-29T03:58:05;3.97;;;2.65;;
46953;SDS011;32707;43.886;12.874;2022-07-29T04:00:33;7.85;;;2.85;;
46953;SDS011;32707;43.886;12.874;2022-07-29T04:02:59;5.82;;;2.83;;
46953;SDS011;32707;43.886;12.874;2022-07-29T04:05:26;4.65;;;2.55;;
46953;SDS011;32707;43.886;12.874;2022-07-29T04:07:51;8.85;;;2.22;;
46953;SDS011;32707;43.886;12.874;2022-07-29T04:10:19;4.57;;;2.72;;
46953;SDS011;32707;43.886;12.874;2022-07-29T04:12:45;10.65;;;2.75;;
46953;SDS011;32707;43.886;12.874;2022-07-29T04:15:11;5.10;;;2.60;;
46953;SDS011;32707;43.886;12.874;2022-07-29T04:17:37;5.45;;;2.45;;
46953;SDS011;32707;43.886;12.874;2022-07-29T04:20:03;6.13;;;2.13;;
46953;SDS011;32707;43.886;12.874;2022-07-29T04:22:29;5.07;;;2.28;;
46953;SDS011;32707;43.886;12.874;2022-07-29T04:24:55;7.68;;;3.08;;
46953;SDS011;32707;43.886;12.874;2022-07-29T04:27:20;3.10;;;2.40;;
46953;SDS011;32707;43.886;12.874;2022-07-29T04:29:46;11.07;;;2.63;;
46953;SDS011;32707;43.886;12.874;2022-07-29T04:32:11;5.78;;;2.25;;
46953;SDS011;32707;43.886;12.874;2022-07-29T04:34:40;4.15;;;2.30;;
46953;SDS011;32707;43.886;12.874;2022-07-29T04:37:06;2.97;;;2.33;;
46953;SDS011;32707;43.886;12.874;2022-07-29T04:39:31;4.53;;;2.35;;
46953;SDS011;32707;43.886;12.874;2022-07-29T04:41:57;7.03;;;2.10;;
46953;SDS011;32707;43.886;12.874;2022-07-29T04:44:22;3.92;;;2.08;;
46953;SDS011;32707;43.886;12.874;2022-07-29T04:46:51;5.60;;;3.00;;
46953;SDS011;32707;43.886;12.874;2022-07-29T04:49:16;4.45;;;2.65;;
46953;SDS011;32707;43.886;12.874;2022-07-29T04:51:42;12.15;;;2.47;;
46953;SDS011;32707;43.886;12.874;2022-07-29T04:54:07;6.88;;;2.75;;
46953;SDS011;32707;43.886;12.874;2022-07-29T04:56:33;5.10;;;2.70;;
46953;SDS011;32707;43.886;12.874;2022-07-29T04:58:59;4.65;;;3.25;;
46953;SDS011;32707;43.886;12.874;2022-07-29T05:01:24;4.78;;;2.80;;
46953;SDS011;32707;43.886;12.874;2022-07-29T05:03:50;7.32;;;2.80;;
46953;SDS011;32707;43.886;12.874;2022-07-29T05:06:15;7.82;;;3.03;;
46953;SDS011;32707;43.886;12.874;2022-07-29T05:08:41;7.35;;;3.50;;
46953;SDS011;32707;43.886;12.874;2022-07-29T05:11:06;4.43;;;2.90;;
46953;SDS011;32707;43.886;12.874;2022-07-29T05:13:32;10.68;;;3.00;;
46953;SDS011;32707;43.886;12.874;2022-07-29T05:15:58;12.68;;;3.28;;
46953;SDS011;32707;43.886;12.874;2022-07-29T05:18:24;15.73;;;3.42;;
46953;SDS011;32707;43.886;12.874;2022-07-29T05:20:50;10.07;;;3.72;;
46953;SDS011;32707;43.886;12.874;2022-07-29T05:23:15;14.25;;;3.67;;
46953;SDS011;32707;43.886;12.874;2022-07-29T05:25:41;12.13;;;3.58;;
46953;SDS011;32707;43.886;12.874;2022-07-29T05:28:07;4.63;;;3.25;;
46953;SDS011;32707;43.886;12.874;2022-07-29T05:30:32;13.45;;;3.35;;
46953;SDS011;32707;43.886;12.874;2022-07-29T05:32:58;3.30;;;2.58;;
46953;SDS011;32707;43.886;12.874;2022-07-29T05:35:23;11.52;;;2.97;;
46953;SDS011;32707;43.886;12.874;2022-07-29T05:37:49;6.70;;;2.92;;
46953;SDS011;32707;43.886;12.874;2022-07-29T05:40:14;3.28;;;2.75;;
46953;SDS011;32707;43.886;12.874;2022-07-29T05:42:40;6.13;;;3.30;;
46953;SDS011;32707;43.886;12.874;2022-07-29T05:45:05;5.85;;;3.00;;
46953;SDS011;32707;43.886;12.874;2022-07-29T05:47:31;6.13;;;3.08;;
46953;SDS011;32707;43.886;12.874;2022-07-29T05:50:00;10.15;;;2.85;;
46953;SDS011;32707;43.886;12.874;2022-07-29T05:52:25;10.07;;;2.80;;
46953;SDS011;32707;43.886;12.874;2022-07-29T05:54:51;5.72;;;2.72;;
46953;SDS011;32707;43.886;12.874;2022-07-29T05:57:17;5.78;;;3.10;;
46953;SDS011;32707;43.886;12.874;2022-07-29T05:59:44;8.57;;;2.88;;
46953;SDS011;32707;43.886;12.874;2022-07-29T06:02:09;12.32;;;2.92;;
46953;SDS011;32707;43.886;12.874;2022-07-29T06:04:35;8.55;;;3.20;;
46953;SDS011;32707;43.886;12.874;2022-07-29T06:07:00;6.43;;;2.88;;
46953;SDS011;32707;43.886;12.874;2022-07-29T06:09:26;10.48;;;2.85;;
46953;SDS011;32707;43.886;12.874;2022-07-29T06:11:52;6.10;;;2.88;;
46953;SDS011;32707;43.886;12.874;2022-07-29T06:14:18;5.43;;;3.05;;
46953;SDS011;32707;43.886;12.874;2022-07-29T06:16:44;9.05;;;2.75;;
46953;SDS011;32707;43.886;12.874;2022-07-29T06:19:09;5.68;;;3.17;;
46953;SDS011;32707;43.886;12.874;2022-07-29T06:21:35;3.35;;;2.70;;
46953;SDS011;32707;43.886;12.874;2022-07-29T06:24:00;7.15;;;3.10;;
46953;SDS011;32707;43.886;12.874;2022-07-29T06:26:26;2.85;;;2.33;;
46953;SDS011;32707;43.886;12.874;2022-07-29T06:28:51;5.45;;;3.28;;
46953;SDS011;32707;43.886;12.874;2022-07-29T06:31:17;8.40;;;3.13;;
46953;SDS011;32707;43.886;12.874;2022-07-29T06:33:42;10.75;;;2.80;;
46953;SDS011;32707;43.886;12.874;2022-07-29T06:36:08;3.00;;;2.65;;
46953;SDS011;32707;43.886;12.874;2022-07-29T06:38:34;8.82;;;2.67;;
46953;SDS011;32707;43.886;12.874;2022-07-29T06:41:00;3.83;;;2.38;;
46953;SDS011;32707;43.886;12.874;2022-07-29T06:43:31;3.35;;;2.58;;
46953;SDS011;32707;43.886;12.874;2022-07-29T06:46:03;7.38;;;3.20;;
46953;SDS011;32707;43.886;12.874;2022-07-29T06:48:30;5.18;;;3.15;;
46953;SDS011;32707;43.886;12.874;2022-07-29T06:50:57;4.57;;;2.53;;
46953;SDS011;32707;43.886;12.874;2022-07-29T06:53:24;14.43;;;3.38;;
46953;SDS011;32707;43.886;12.874;2022-07-29T06:55:49;11.25;;;3.22;;
46953;SDS011;32707;43.886;12.874;2022-07-29T06:58:15;8.23;;;3.22;;
46953;SDS011;32707;43.886;12.874;2022-07-29T07:00:43;3.45;;;2.33;;
46953;SDS011;32707;43.886;12.874;2022-07-29T07:03:09;10.70;;;2.47;;
46953;SDS011;32707;43.886;12.874;2022-07-29T07:05:35;6.45;;;2.95;;
46953;SDS011;32707;43.886;12.874;2022-07-29T07:08:01;5.68;;;2.45;;
46953;SDS011;32707;43.886;12.874;2022-07-29T07:10:26;2.25;;;2.05;;
46953;SDS011;32707;43.886;12.874;2022-07-29T07:12:52;2.47;;;2.28;;
46953;SDS011;32707;43.886;12.874;2022-07-29T07:15:18;5.35;;;2.78;;
46953;SDS011;32707;43.886;12.874;2022-07-29T07:17:48;5.03;;;2.50;;
46953;SDS011;32707;43.886;12.874;2022-07-29T07:20:14;7.45;;;2.90;;
46953;SDS011;32707;43.886;12.874;2022-07-29T07:22:40;14.68;;;2.70;;
46953;SDS011;32707;43.886;12.874;2022-07-29T07:25:06;5.90;;;2.70;;
46953;SDS011;32707;43.886;12.874;2022-07-29T07:27:32;9.60;;;2.70;;
46953;SDS011;32707;43.886;12.874;2022-07-29T07:29:57;5.30;;;2.70;;
46953;SDS011;32707;43.886;12.874;2022-07-29T07:32:23;7.70;;;2.38;;
46953;SDS011;32707;43.886;12.874;2022-07-29T07:34:48;7.95;;;2.55;;
46953;SDS011;32707;43.886;12.874;2022-07-29T07:37:14;6.70;;;2.53;;
46953;SDS011;32707;43.886;12.874;2022-07-29T07:39:40;10.65;;;2.75;;
46953;SDS011;32707;43.886;12.874;2022-07-29T07:42:05;8.82;;;2.67;;
46953;SDS011;32707;43.886;12.874;2022-07-29T07:44:31;6.57;;;2.28;;
46953;SDS011;32707;43.886;12.874;2022-07-29T07:46:57;11.35;;;2.90;;
46953;SDS011;32707;43.886;12.874;2022-07-29T07:49:22;3.90;;;2.20;;
46953;SDS011;32707;43.886;12.874;2022-07-29T07:51:48;8.02;;;2.45;;
46953;SDS011;32707;43.886;12.874;2022-07-29T07:54:14;5.78;;;2.88;;
46953;SDS011;32707;43.886;12.874;2022-07-29T07:56:39;2.72;;;2.50;;
46953;SDS011;32707;43.886;12.874;2022-07-29T07:59:05;9.20;;;2.63;;
46953;SDS011;32707;43.886;12.874;2022-07-29T08:01:30;4.90;;;2.80;;
46953;SDS011;32707;43.886;12.874;2022-07-29T08:03:56;10.02;;;2.70;;
46953;SDS011;32707;43.886;12.874;2022-07-29T08:06:21;3.10;;;2.75;;
46953;SDS011;32707;43.886;12.874;2022-07-29T08:08:48;3.38;;;2.60;;
46953;SDS011;32707;43.886;12.874;2022-07-29T08:11:14;2.72;;;2.15;;
46953;SDS011;32707;43.886;12.874;2022-07-29T08:13:42;3.90;;;2.50;;
46953;SDS011;32707;43.886;12.874;2022-07-29T08:16:08;3.42;;;2.50;;
46953;SDS011;32707;43.886;12.874;2022-07-29T08:18:37;2.97;;;2.67;;
46953;SDS011;32707;43.886;12.874;2022-07-29T08:21:04;6.25;;;2.50;;
46953;SDS011;32707;43.886;12.874;2022-07-29T08:23:30;7.18;;;2.67;;
46953;SDS011;32707;43.886;12.874;2022-07-29T08:26:10;4.53;;;2.42;;
46953;SDS011;32707;43.886;12.874;2022-07-29T08:28:39;6.75;;;2.78;;
46953;SDS011;32707;43.886;12.874;2022-07-29T08:31:09;8.13;;;2.88;;
46953;SDS011;32707;43.886;12.874;2022-07-29T08:33:35;6.20;;;2.40;;
46953;SDS011;32707;43.886;12.874;2022-07-29T08:36:00;6.40;;;2.95;;
46953;SDS011;32707;43.886;12.874;2022-07-29T08:38:26;3.17;;;2.25;;
46953;SDS011;32707;43.886;12.874;2022-07-29T08:40:52;2.03;;;1.90;;
46953;SDS011;32707;43.886;12.874;2022-07-29T08:43:18;6.63;;;2.72;;
46953;SDS011;32707;43.886;12.874;2022-07-29T08:45:45;4.10;;;2.75;;
46953;SDS011;32707;43.886;12.874;2022-07-29T08:48:16;4.07;;;2.13;;
46953;SDS011;32707;43.886;12.874;2022-07-29T08:50:43;2.70;;;2.50;;
46953;SDS011;32707;43.886;12.874;2022-07-29T08:53:13;6.03;;;2.20;;
46953;SDS011;32707;43.886;12.874;2022-07-29T08:55:44;2.63;;;2.30;;
46953;SDS011;32707;43.886;12.874;2022-07-29T08:58:13;5.43;;;2.45;;
46953;SDS011;32707;43.886;12.874;2022-07-29T09:00:41;3.33;;;2.25;;
46953;SDS011;32707;43.886;12.874;2022-07-29T09:03:09;2.88;;;2.30;;
46953;SDS011;32707;43.886;12.874;2022-07-29T09:05:41;5.05;;;2.15;;
46953;SDS011;32707;43.886;12.874;2022-07-29T09:08:07;4.05;;;2.38;;
46953;SDS011;32707;43.886;12.874;2022-07-29T09:10:34;4.40;;;2.30;;
46953;SDS011;32707;43.886;12.874;2022-07-29T09:13:00;3.42;;;2.50;;
46953;SDS011;32707;43.886;12.874;2022-07-29T09:15:26;3.97;;;2.10;;
46953;SDS011;32707;43.886;12.874;2022-07-29T09:17:51;4.40;;;2.25;;
46953;SDS011;32707;43.886;12.874;2022-07-29T09:20:19;4.90;;;2.80;;
46953;SDS011;32707;43.886;12.874;2022-07-29T09:22:46;2.03;;;1.92;;
46953;SDS011;32707;43.886;12.874;2022-07-29T09:25:33;5.88;;;2.72;;
46953;SDS011;32707;43.886;12.874;2022-07-29T09:28:09;5.90;;;2.42;;
46953;SDS011;32707;43.886;12.874;2022-07-29T09:30:55;2.35;;;1.67;;
46953;SDS011;32707;43.886;12.874;2022-07-29T09:33:23;4.32;;;2.45;;
46953;SDS011;32707;43.886;12.874;2022-07-29T09:35:59;2.50;;;2.30;;
46953;SDS011;32707;43.886;12.874;2022-07-29T09:38:28;2.55;;;2.35;;
46953;SDS011;32707;43.886;12.874;2022-07-29T09:40:57;1.98;;;1.85;;
46953;SDS011;32707;43.886;12.874;2022-07-29T09:43:23;2.97;;;1.95;;
46953;SDS011;32707;43.886;12.874;2022-07-29T09:45:49;2.78;;;2.28;;
46953;SDS011;32707;43.886;12.874;2022-07-29T09:50:41;8.30;;;2.13;;
46953;SDS011;32707;43.886;12.874;2022-07-29T09:53:08;4.68;;;2.42;;
46953;SDS011;32707;43.886;12.874;2022-07-29T09:55:50;7.80;;;2.17;;
46953;SDS011;32707;43.886;12.874;2022-07-29T09:58:17;7.50;;;2.55;;
46953;SDS011;32707;43.886;12.874;2022-07-29T10:00:44;3.85;;;2.50;;
46953;SDS011;32707;43.886;12.874;2022-07-29T10:03:11;3.20;;;2.03;;
46953;SDS011;32707;43.886;12.874;2022-07-29T10:05:37;2.60;;;2.05;;
46953;SDS011;32707;43.886;12.874;2022-07-29T10:08:04;2.92;;;1.95;;
46953;SDS011;32707;43.886;12.874;2022-07-29T10:10:33;8.52;;;2.25;;
46953;SDS011;32707;43.886;12.874;2022-07-29T10:13:01;4.50;;;2.38;;
46953;SDS011;32707;43.886;12.874;2022-07-29T10:15:31;2.40;;;2.20;;
46953;SDS011;32707;43.886;12.874;2022-07-29T10:18:04;4.13;;;2.17;;
46953;SDS011;32707;43.886;12.874;2022-07-29T10:20:31;3.40;;;1.90;;
46953;SDS011;32707;43.886;12.874;2022-07-29T10:22:57;2.10;;;1.90;;
46953;SDS011;32707;43.886;12.874;2022-07-29T10:25:23;2.22;;;1.58;;
46953;SDS011;32707;43.886;12.874;2022-07-29T10:27:49;4.22;;;2.20;;
46953;SDS011;32707;43.886;12.874;2022-07-29T10:30:20;2.33;;;2.13;;
46953;SDS011;32707;43.886;12.874;2022-07-29T10:35:29;3.78;;;2.08;;
46953;SDS011;32707;43.886;12.874;2022-07-29T10:44:17;4.70;;;2.40;;
46953;SDS011;32707;43.886;12.874;2022-07-29T10:46:45;6.18;;;2.15;;
46953;SDS011;32707;43.886;12.874;2022-07-29T10:55:02;5.40;;;2.00;;
46953;SDS011;32707;43.886;12.874;2022-07-29T10:57:24;3.17;;;2.00;;
46953;SDS011;32707;43.886;12.874;2022-07-29T11:07:25;2.92;;;2.25;;
46953;SDS011;32707;43.886;12.874;2022-07-29T11:20:37;3.67;;;2.00;;
46953;SDS011;32707;43.886;12.874;2022-07-29T11:31:34;2.13;;;2.03;;
46953;SDS011;32707;43.886;12.874;2022-07-29T11:40:08;3.60;;;2.10;;
46953;SDS011;32707;43.886;12.874;2022-07-29T11:45:00;2.67;;;2.30;;
46953;SDS011;32707;43.886;12.874;2022-07-29T11:47:36;1.65;;;1.55;;
46953;SDS011;32707;43.886;12.874;2022-07-29T11:50:04;3.92;;;2.08;;
46953;SDS011;32707;43.886;12.874;2022-07-29T11:52:33;4.13;;;1.80;;
46953;SDS011;32707;43.886;12.874;2022-07-29T11:55:02;2.30;;;1.50;;
46953;SDS011;32707;43.886;12.874;2022-07-29T11:57:29;1.63;;;1.52;;
46953;SDS011;32707;43.886;12.874;2022-07-29T11:59:55;2.20;;;2.00;;
46953;SDS011;32707;43.886;12.874;2022-07-29T12:02:23;2.35;;;2.15;;
46953;SDS011;32707;43.886;12.874;2022-07-29T12:09:57;4.78;;;1.85;;
46953;SDS011;32707;43.886;12.874;2022-07-29T12:12:23;2.03;;;1.50;;
46953;SDS011;32707;43.886;12.874;2022-07-29T12:14:49;3.03;;;2.20;;
46953;SDS011;32707;43.886;12.874;2022-07-29T12:17:28;2.47;;;2.00;;
46953;SDS011;32707;43.886;12.874;2022-07-29T12:19:58;3.45;;;1.90;;
46953;SDS011;32707;43.886;12.874;2022-07-29T12:22:37;4.82;;;1.88;;
46953;SDS011;32707;43.886;12.874;2022-07-29T12:25:12;4.53;;;2.50;;
46953;SDS011;32707;43.886;12.874;2022-07-29T12:27:43;4.43;;;1.70;;
46953;SDS011;32707;43.886;12.874;2022-07-29T12:30:10;3.15;;;1.80;;
46953;SDS011;32707;43.886;12.874;2022-07-29T12:32:45;7.13;;;2.00;;
46953;SDS011;32707;43.886;12.874;2022-07-29T12:35:16;2.38;;;1.65;;
46953;SDS011;32707;43.886;12.874;2022-07-29T12:37:45;2.45;;;2.15;;
46953;SDS011;32707;43.886;12.874;2022-07-29T12:40:17;2.20;;;2.03;;
46953;SDS011;32707;43.886;12.874;2022-07-29T12:45:35;5.68;;;2.10;;
46953;SDS011;32707;43.886;12.874;2022-07-29T12:48:03;3.15;;;1.60;;
46953;SDS011;32707;43.886;12.874;2022-07-29T12:50:30;5.93;;;1.92;;
46953;SDS011;32707;43.886;12.874;2022-07-29T12:53:18;2.10;;;1.83;;
46953;SDS011;32707;43.886;12.874;2022-07-29T12:55:46;5.15;;;1.90;;
46953;SDS011;32707;43.886;12.874;2022-07-29T12:58:30;1.77;;;1.65;;
46953;SDS011;32707;43.886;12.874;2022-07-29T13:01:04;2.25;;;1.80;;
46953;SDS011;32707;43.886;12.874;2022-07-29T13:03:41;2.15;;;1.95;;
46953;SDS011;32707;43.886;12.874;2022-07-29T13:11:43;4.93;;;1.90;;
46953;SDS011;32707;43.886;12.874;2022-07-29T13:14:09;6.03;;;2.10;;
46953;SDS011;32707;43.886;12.874;2022-07-29T13:16:37;2.90;;;1.90;;
46953;SDS011;32707;43.886;12.874;2022-07-29T13:19:31;1.90;;;1.45;;
46953;SDS011;32707;43.886;12.874;2022-07-29T13:22:05;1.92;;;1.80;;
46953;SDS011;32707;43.886;12.874;2022-07-29T13:24:31;7.00;;;1.88;;
46953;SDS011;32707;43.886;12.874;2022-07-29T13:26:57;5.75;;;1.80;;
46953;SDS011;32707;43.886;12.874;2022-07-29T13:29:22;3.63;;;1.65;;
46953;SDS011;32707;43.886;12.874;2022-07-29T13:31:48;3.33;;;1.80;;
46953;SDS011;32707;43.886;12.874;2022-07-29T13:34:13;4.95;;;2.03;;
46953;SDS011;32707;43.886;12.874;2022-07-29T13:36:39;3.30;;;1.65;;
46953;SDS011;32707;43.886;12.874;2022-07-29T13:39:04;2.63;;;1.90;;
46953;SDS011;32707;43.886;12.874;2022-07-29T13:41:30;5.65;;;1.88;;
46953;SDS011;32707;43.886;12.874;2022-07-29T13:43:55;3.33;;;1.30;;
46953;SDS011;32707;43.886;12.874;2022-07-29T13:46:21;4.57;;;2.50;;
46953;SDS011;32707;43.886;12.874;2022-07-29T13:48:46;1.92;;;1.73;;
46953;SDS011;32707;43.886;12.874;2022-07-29T13:51:12;2.72;;;1.75;;
46953;SDS011;32707;43.886;12.874;2022-07-29T13:53:38;2.53;;;1.75;;
46953;SDS011;32707;43.886;12.874;2022-07-29T13:56:03;2.30;;;1.75;;
46953;SDS011;32707;43.886;12.874;2022-07-29T13:58:31;2.55;;;1.90;;
46953;SDS011;32707;43.886;12.874;2022-07-29T14:00:57;3.40;;;1.75;;
46953;SDS011;32707;43.886;12.874;2022-07-29T14:03:23;2.50;;;1.88;;
46953;SDS011;32707;43.886;12.874;2022-07-29T14:05:49;3.25;;;2.15;;
46953;SDS011;32707;43.886;12.874;2022-07-29T14:08:15;4.13;;;1.70;;
46953;SDS011;32707;43.886;12.874;2022-07-29T14:10:40;7.03;;;2.15;;
46953;SDS011;32707;43.886;12.874;2022-07-29T14:13:06;10.18;;;1.80;;
46953;SDS011;32707;43.886;12.874;2022-07-29T14:15:31;3.67;;;2.03;;
46953;SDS011;32707;43.886;12.874;2022-07-29T14:17:57;5.05;;;1.60;;
46953;SDS011;32707;43.886;12.874;2022-07-29T14:20:22;4.25;;;1.77;;
46953;SDS011;32707;43.886;12.874;2022-07-29T14:22:48;5.90;;;1.92;;
46953;SDS011;32707;43.886;12.874;2022-07-29T14:25:13;6.43;;;1.92;;
46953;SDS011;32707;43.886;12.874;2022-07-29T14:27:39;4.15;;;1.70;;
46953;SDS011;32707;43.886;12.874;2022-07-29T14:30:05;10.30;;;1.75;;
46953;SDS011;32707;43.886;12.874;2022-07-29T14:32:31;4.40;;;2.10;;
46953;SDS011;32707;43.886;12.874;2022-07-29T14:34:58;11.20;;;1.73;;
46953;SDS011;32707;43.886;12.874;2022-07-29T14:37:24;4.63;;;2.17;;
46953;SDS011;32707;43.886;12.874;2022-07-29T14:39:49;3.72;;;1.95;;
46953;SDS011;32707;43.886;12.874;2022-07-29T14:42:18;3.38;;;2.10;;
46953;SDS011;32707;43.886;12.874;2022-07-29T14:44:44;1.75;;;1.65;;
46953;SDS011;32707;43.886;12.874;2022-07-29T14:47:13;8.00;;;2.25;;
46953;SDS011;32707;43.886;12.874;2022-07-29T14:49:39;3.15;;;1.98;;
46953;SDS011;32707;43.886;12.874;2022-07-29T14:52:05;3.15;;;2.00;;
46953;SDS011;32707;43.886;12.874;2022-07-29T14:54:31;1.60;;;1.50;;
46953;SDS011;32707;43.886;12.874;2022-07-29T14:56:57;6.53;;;1.73;;
46953;SDS011;32707;43.886;12.874;2022-07-29T14:59:24;1.63;;;1.45;;
46953;SDS011;32707;43.886;12.874;2022-07-29T15:01:51;3.50;;;2.10;;
46953;SDS011;32707;43.886;12.874;2022-07-29T15:04:17;2.15;;;1.92;;
46953;SDS011;32707;43.886;12.874;2022-07-29T15:06:42;3.42;;;2.03;;
46953;SDS011;32707;43.886;12.874;2022-07-29T15:09:08;2.50;;;2.13;;
46953;SDS011;32707;43.886;12.874;2022-07-29T15:11:34;2.72;;;1.77;;
46953;SDS011;32707;43.886;12.874;2022-07-29T15:14:00;2.30;;;1.60;;
46953;SDS011;32707;43.886;12.874;2022-07-29T15:16:27;5.32;;;1.55;;
46953;SDS011;32707;43.886;12.874;2022-07-29T15:18:54;5.80;;;1.70;;
46953;SDS011;32707;43.886;12.874;2022-07-29T15:21:22;4.15;;;2.53;;
46953;SDS011;32707;43.886;12.874;2022-07-29T15:23:48;3.88;;;1.55;;
46953;SDS011;32707;43.886;12.874;2022-07-29T15:26:14;4.35;;;2.00;;
46953;SDS011;32707;43.886;12.874;2022-07-29T15:28:40;8.20;;;2.00;;
46953;SDS011;32707;43.886;12.874;2022-07-29T15:31:08;5.32;;;1.80;;
46953;SDS011;32707;43.886;12.874;2022-07-29T15:33:34;2.80;;;1.90;;
46953;SDS011;32707;43.886;12.874;2022-07-29T15:35:59;9.02;;;1.85;;
46953;SDS011;32707;43.886;12.874;2022-07-29T15:38:25;10.35;;;1.98;;
46953;SDS011;32707;43.886;12.874;2022-07-29T15:40:50;3.47;;;2.00;;
46953;SDS011;32707;43.886;12.874;2022-07-29T15:43:16;2.75;;;2.35;;
46953;SDS011;32707;43.886;12.874;2022-07-29T15:45:42;2.20;;;1.90;;
46953;SDS011;32707;43.886;12.874;2022-07-29T15:48:30;2.22;;;1.67;;
46953;SDS011;32707;43.886;12.874;2022-07-29T15:50:56;1.67;;;1.58;;
46953;SDS011;32707;43.886;12.874;2022-07-29T15:53:23;3.50;;;2.58;;